Time;durP1;ratioP1;P1;durP2;ratioP2;P2;SDS_P1;SDS_P2;PMS_P1;PMS_P2;Temp;Humidity;BMP_temperature;BMP_pressure;BME280_temperature;BME280_humidity;BME280_pressure;Samples;Min_cycle;Max_cycle;Signal;HPM_P1;HPM_P2
2021/07/09 00:02:12;;;;;;;14.30;7.43;;;;;;;30.00;42.21;99669.50;4483729;32;34929;-67
2021/07/09 00:04:40;;;;;;;8.20;6.60;;;;;;;30.01;42.31;99664.81;4483707;32;34679;-67
2021/07/09 00:07:07;;;;;;;9.73;6.85;;;;;;;30.00;42.33;99655.75;4488647;31;33939;-67
2021/07/09 00:09:35;;;;;;;9.70;6.85;;;;;;;30.00;42.28;99655.75;4499706;31;34659;-67
2021/07/09 00:12:03;;;;;;;8.88;7.05;;;;;;;30.01;42.37;99656.56;4499127;31;33831;-66
2021/07/09 00:14:32;;;;;;;10.50;7.15;;;;;;;30.02;42.34;99650.78;4498880;31;33985;-67
2021/07/09 00:16:59;;;;;;;10.40;7.03;;;;;;;30.00;42.41;99655.75;4499375;31;34369;-67
2021/07/09 00:19:27;;;;;;;13.25;7.30;;;;;;;30.03;42.39;99646.09;4499383;31;33977;-68
2021/07/09 00:21:56;;;;;;;11.73;7.65;;;;;;;30.01;42.46;99651.06;4499489;31;33993;-67
2021/07/09 00:24:24;;;;;;;;;;;;;;;30.02;42.39;99652.69;4485926;31;34669;-67
2021/07/09 00:26:52;;;;;;;12.27;6.87;;;;;;;30.13;42.20;99649.72;4499460;31;32986;-67
2021/07/09 00:29:19;;;;;;;10.25;7.28;;;;;;;30.05;42.36;99649.41;4499368;31;34051;-68
2021/07/09 00:31:47;;;;;;;9.30;7.30;;;;;;;30.06;42.39;99640.06;4499240;31;34049;-68
2021/07/09 00:34:17;;;;;;;9.45;7.05;;;;;;;30.05;42.46;99639.22;4499408;31;34492;-68
2021/07/09 00:36:44;;;;;;;10.40;6.68;;;;;;;30.03;42.49;99633.19;4499305;31;33722;-67
2021/07/09 00:39:12;;;;;;;10.60;7.10;;;;;;;30.06;42.46;99634.56;4499079;31;33961;-67
2021/07/09 00:41:40;;;;;;;10.93;7.10;;;;;;;30.03;42.55;99626.84;4499322;31;34167;-67
2021/07/09 00:44:07;;;;;;;8.85;6.80;;;;;;;30.02;42.59;99627.94;4494679;31;34199;-67
2021/07/09 00:46:39;;;;;;;10.35;6.80;;;;;;;30.01;42.51;99621.63;4483304;32;33550;-67
2021/07/09 00:49:08;;;;;;;12.27;6.90;;;;;;;30.00;42.47;99622.72;4483230;32;33909;-67
2021/07/09 00:51:36;;;;;;;9.17;7.00;;;;;;;29.98;42.54;99628.50;4471847;31;33968;-66
2021/07/09 00:54:03;;;;;;;15.43;7.95;;;;;;;29.98;42.52;99625.75;4474446;32;34074;-66
2021/07/09 00:56:31;;;;;;;11.05;7.75;;;;;;;29.98;42.55;99619.41;4482732;32;33060;-65
2021/07/09 00:58:59;;;;;;;11.68;7.28;;;;;;;29.98;42.57;99624.91;4468176;32;36670;-68
2021/07/09 01:01:26;;;;;;;8.82;6.90;;;;;;;29.98;42.58;99623.00;4455445;32;34922;-68
2021/07/09 01:03:54;;;;;;;11.95;7.00;;;;;;;29.98;42.60;99625.75;4482617;32;34394;-69
2021/07/09 01:06:21;;;;;;;12.25;7.50;;;;;;;29.98;42.63;99622.16;4468253;32;34128;-68
2021/07/09 01:08:49;;;;;;;10.55;6.72;;;;;;;29.98;42.60;99619.41;4482661;32;34321;-68
2021/07/09 01:11:18;;;;;;;11.10;6.85;;;;;;;29.98;42.55;99624.91;4482704;32;34252;-68
2021/07/09 01:13:46;;;;;;;12.98;6.68;;;;;;;29.96;42.66;99614.19;4455681;32;34625;-68
2021/07/09 01:16:13;;;;;;;15.27;6.85;;;;;;;29.97;42.66;99617.75;4483212;32;33180;-68
2021/07/09 01:18:41;;;;;;;12.90;7.15;;;;;;;29.98;42.72;99616.66;4468751;32;33961;-68
2021/07/09 01:21:09;;;;;;;12.93;7.05;;;;;;;29.96;42.79;99613.37;4468589;32;34078;-68
2021/07/09 01:23:37;;;;;;;14.25;7.10;;;;;;;29.95;42.75;99614.47;4468831;32;33594;-67
2021/07/09 01:26:05;;;;;;;11.32;6.95;;;;;;;29.95;42.84;99609.78;4483211;32;33088;-69
2021/07/09 01:28:32;;;;;;;10.95;7.43;;;;;;;29.96;42.80;99605.13;4484856;32;33982;-67
2021/07/09 01:31:00;;;;;;;9.13;6.47;;;;;;;29.99;42.72;99619.16;4484982;32;34756;-69
2021/07/09 01:33:28;;;;;;;10.88;7.32;;;;;;;29.98;42.74;99606.50;4470683;32;34063;-69
2021/07/09 01:35:56;;;;;;;9.77;6.97;;;;;;;29.98;42.76;99619.41;4484702;32;33294;-68
2021/07/09 01:38:23;;;;;;;10.05;7.50;;;;;;;30.00;42.70;99619.97;4484930;32;33661;-67
2021/07/09 01:40:51;;;;;;;9.82;6.90;;;;;;;29.99;42.70;99613.66;4484930;32;34051;-67
2021/07/09 01:43:18;;;;;;;12.73;7.50;;;;;;;29.98;42.74;99613.91;4484594;32;33919;-66
2021/07/09 01:45:47;;;;;;;11.05;6.87;;;;;;;29.96;42.72;99621.63;4484635;32;33054;-67
2021/07/09 01:48:15;;;;;;;11.00;7.07;;;;;;;29.96;42.79;99616.12;4484765;32;34835;-65
2021/07/09 01:50:42;;;;;;;10.95;7.55;;;;;;;29.95;42.85;99614.47;4484811;32;33998;-67
2021/07/09 01:53:09;;;;;;;10.45;7.53;;;;;;;29.94;42.82;99612.84;4484759;32;33161;-68
2021/07/09 01:55:37;;;;;;;12.02;7.43;;;;;;;29.94;42.73;99612.84;4470715;32;33064;-68
2021/07/09 01:58:05;;;;;;;11.10;7.00;;;;;;;29.94;42.69;99610.91;4484224;32;34857;-68
2021/07/09 02:00:32;;;;;;;9.57;6.97;;;;;;;29.94;42.81;99621.09;4484719;32;34037;-67
2021/07/09 02:03:00;;;;;;;12.75;7.12;;;;;;;29.95;42.77;99614.47;4484792;32;34569;-69
2021/07/09 02:05:27;;;;;;;12.27;7.53;;;;;;;29.93;42.78;99614.72;4484636;32;34219;-67
2021/07/09 02:07:55;;;;;;;13.05;7.37;;;;;;;29.94;42.79;99615.59;4494589;31;33865;-69
2021/07/09 02:10:25;;;;;;;11.48;7.00;;;;;;;29.94;42.78;99615.59;4500551;31;34118;-67
2021/07/09 02:12:56;;;;;;;9.30;7.35;;;;;;;29.94;42.80;99612.84;4499915;31;34619;-69
2021/07/09 02:15:26;;;;;;;9.23;8.10;;;;;;;29.93;42.83;99609.22;4486738;31;32609;-66
2021/07/09 02:17:53;;;;;;;10.93;7.33;;;;;;;29.93;42.77;99602.91;4500374;31;35325;-68
2021/07/09 02:20:22;;;;;;;10.80;7.18;;;;;;;29.96;42.74;99611.44;4500419;31;33917;-66
2021/07/09 02:22:50;;;;;;;11.27;7.53;;;;;;;29.93;42.80;99603.72;4500345;31;33700;-67
2021/07/09 02:25:17;;;;;;;12.43;7.35;;;;;;;29.94;42.83;99605.41;4485988;31;33777;-66
2021/07/09 02:27:47;;;;;;;13.48;7.47;;;;;;;29.95;42.85;99600.72;4500273;31;33876;-68
2021/07/09 02:30:16;;;;;;;10.57;7.43;;;;;;;29.93;42.87;99597.41;4500342;31;34095;-68
2021/07/09 02:32:45;;;;;;;11.65;7.45;;;;;;;29.94;42.82;99607.31;4500227;31;33488;-67
2021/07/09 02:35:17;;;;;;;11.63;6.97;;;;;;;29.94;42.90;99596.31;4500410;31;34287;-68
2021/07/09 02:37:46;;;;;;;9.98;7.57;;;;;;;29.93;42.87;99597.41;4499785;31;33839;-68
2021/07/09 02:40:16;;;;;;;10.60;7.20;;;;;;;29.93;42.83;99600.16;4500053;31;34093;-66
2021/07/09 02:42:45;;;;;;;9.75;6.85;;;;;;;29.94;42.82;99610.06;4500253;31;34620;-67
2021/07/09 02:45:13;;;;;;;12.77;7.45;;;;;;;29.93;42.82;99605.66;4500241;31;33475;-69
2021/07/09 02:47:40;;;;;;;11.88;8.13;;;;;;;29.93;42.84;99600.97;4484238;31;33611;-67
2021/07/09 02:50:11;;;;;;;9.82;7.37;;;;;;;29.94;42.89;99602.66;4484395;32;33935;-68
2021/07/09 02:52:38;;;;;;;10.02;7.55;;;;;;;29.96;42.80;99602.38;4457133;32;33972;-67
2021/07/09 02:55:09;;;;;;;10.05;7.90;;;;;;;29.94;42.81;99602.66;4484438;32;33572;-66
2021/07/09 02:57:38;;;;;;;10.98;7.80;;;;;;;29.93;42.86;99592.72;4484178;32;33969;-67
2021/07/09 03:00:06;;;;;;;13.17;7.07;;;;;;;29.92;42.83;99593.81;4470110;32;34602;-68
2021/07/09 03:02:34;;;;;;;12.43;7.72;;;;;;;29.94;42.83;99593.56;4484391;32;33892;-67
2021/07/09 03:05:02;;;;;;;11.23;7.93;;;;;;;29.93;42.81;99594.66;4484256;32;33574;-69
2021/07/09 03:07:29;;;;;;;10.10;7.15;;;;;;;29.93;42.86;99597.41;4481712;31;34636;-68
2021/07/09 03:09:57;;;;;;;13.05;7.70;;;;;;;29.93;42.87;99591.91;4499915;31;34053;-67
2021/07/09 03:12:24;;;;;;;14.35;7.82;;;;;;;29.91;42.93;99591.38;4499975;31;33808;-66
2021/07/09 03:14:52;;;;;;;13.13;7.40;;;;;;;29.91;42.94;99591.38;4499990;31;33404;-67
2021/07/09 03:17:19;;;;;;;14.32;8.23;;;;;;;29.91;42.95;99597.69;4500061;31;33434;-66
2021/07/09 03:19:47;;;;;;;11.93;8.30;;;;;;;29.92;43.06;99604.00;4498703;31;33391;-68
2021/07/09 03:22:14;;;;;;;13.70;7.85;;;;;;;29.92;43.05;99609.50;4498625;31;33931;-68
2021/07/09 03:24:41;;;;;;;11.35;7.65;;;;;;;29.92;43.07;99607.59;4498790;31;33529;-66
2021/07/09 03:27:09;;;;;;;12.88;7.93;;;;;;;29.90;43.05;99601.53;4498743;31;35252;-67
2021/07/09 03:29:37;;;;;;;13.27;8.32;;;;;;;29.91;43.09;99605.94;4499798;31;34988;-65
2021/07/09 03:32:04;;;;;;;12.18;8.05;;;;;;;29.93;43.11;99608.41;4499880;31;33508;-67
2021/07/09 03:34:32;;;;;;;13.20;7.97;;;;;;;29.90;43.06;99604.28;4498571;31;34206;-66
2021/07/09 03:36:59;;;;;;;11.90;7.93;;;;;;;29.91;43.11;99599.63;4499200;31;34813;-66
2021/07/09 03:39:27;;;;;;;12.37;7.78;;;;;;;29.91;43.12;99597.69;4499974;31;34210;-68
2021/07/09 03:41:54;;;;;;;12.37;7.82;;;;;;;29.91;43.15;99585.88;4499411;31;33739;-68
2021/07/09 03:44:22;;;;;;;10.70;7.40;;;;;;;29.91;43.02;99583.94;4499754;31;33989;-67
2021/07/09 03:46:49;;;;;;;10.13;7.85;;;;;;;29.91;43.00;99585.88;4488306;31;32936;-67
2021/07/09 03:49:17;;;;;;;9.93;7.87;;;;;;;29.91;43.00;99596.87;4483104;32;34019;-68
2021/07/09 03:51:45;;;;;;;13.82;7.40;;;;;;;29.91;43.09;99607.88;4483715;32;34855;-66
2021/07/09 03:54:13;;;;;;;10.07;8.13;;;;;;;29.91;43.08;99605.13;4484081;32;33452;-66
2021/07/09 03:56:40;;;;;;;14.43;8.13;;;;;;;29.91;43.03;99605.13;4483899;32;34009;-66
2021/07/09 03:59:08;;;;;;;11.25;7.90;;;;;;;29.92;43.02;99607.59;4490907;31;33958;-67
2021/07/09 04:01:35;;;;;;;17.80;8.35;;;;;;;29.91;42.95;99610.63;4497385;31;34136;-66
2021/07/09 04:04:03;;;;;;;14.15;7.62;;;;;;;29.90;42.97;99604.28;4494014;31;33617;-67
2021/07/09 04:06:31;;;;;;;11.80;7.97;;;;;;;29.93;42.90;99606.47;4500183;31;34149;-66
2021/07/09 04:08:58;;;;;;;14.32;8.63;;;;;;;29.93;42.89;99611.16;4510906;31;35217;-67
2021/07/09 04:11:26;;;;;;;12.95;8.13;;;;;;;29.92;42.92;99609.50;4483743;32;33480;-67
2021/07/09 04:13:53;;;;;;;11.75;7.53;;;;;;;29.91;43.04;99610.63;4499001;31;33067;-66
2021/07/09 04:16:21;;;;;;;16.90;9.30;;;;;;;29.91;43.08;99608.69;4499594;31;34064;-67
2021/07/09 04:18:48;;;;;;;11.82;8.10;;;;;;;29.92;43.12;99612.25;4499563;31;34945;-67
2021/07/09 04:21:16;;;;;;;13.60;8.30;;;;;;;29.91;43.13;99607.88;4499549;31;34567;-66
2021/07/09 04:23:43;;;;;;;14.57;8.32;;;;;;;29.89;43.23;99615.56;4485213;31;33432;-67
2021/07/09 04:26:15;;;;;;;15.10;8.43;;;;;;;29.91;43.22;99610.63;4493356;31;33915;-68
2021/07/09 04:28:42;;;;;;;11.30;8.10;;;;;;;29.90;43.24;99601.53;4479154;31;34085;-67
2021/07/09 04:31:10;;;;;;;15.10;8.32;;;;;;;29.90;43.38;99595.22;4479932;31;33871;-67
2021/07/09 04:33:38;;;;;;;15.05;8.32;;;;;;;29.90;43.41;99595.22;4493924;31;33490;-67
2021/07/09 04:36:05;;;;;;;14.27;8.25;;;;;;;29.90;43.37;99595.22;4499319;31;34165;-67
2021/07/09 04:38:33;;;;;;;12.65;8.13;;;;;;;29.90;43.53;99595.22;4469358;32;34542;-67
2021/07/09 04:41:00;;;;;;;12.77;8.80;;;;;;;29.89;43.50;99604.53;4491382;31;33581;-67
2021/07/09 04:43:28;;;;;;;12.85;8.60;;;;;;;29.89;43.57;99610.91;4494394;31;33266;-67
2021/07/09 04:45:55;;;;;;;10.95;8.35;;;;;;;29.89;43.58;99608.16;4499034;31;33925;-66
2021/07/09 04:48:23;;;;;;;12.75;8.80;;;;;;;29.90;43.47;99601.53;4499063;31;34019;-67
2021/07/09 04:50:50;;;;;;;12.70;8.65;;;;;;;29.91;43.56;99596.87;4499214;31;33847;-68
2021/07/09 04:53:18;;;;;;;15.63;8.60;;;;;;;29.89;43.68;99601.78;4495391;31;34612;-68
2021/07/09 04:55:46;;;;;;;11.77;8.38;;;;;;;29.88;43.77;99611.16;4464465;32;33877;-66
2021/07/09 04:58:13;;;;;;;11.85;8.68;;;;;;;29.90;43.81;99611.72;4483577;32;33357;-66
2021/07/09 05:00:41;;;;;;;10.23;8.77;;;;;;;29.89;43.74;99607.31;4498811;31;33975;-67
2021/07/09 05:03:08;;;;;;;10.52;8.30;;;;;;;29.88;43.73;99616.66;4504208;31;33558;-66
2021/07/09 05:05:36;;;;;;;12.63;8.85;;;;;;;29.90;43.68;99628.22;4500645;31;33206;-67
2021/07/09 05:08:04;;;;;;;13.50;8.93;;;;;;;29.89;43.77;99621.06;4493426;31;35709;-66
2021/07/09 05:10:32;;;;;;;14.07;8.80;;;;;;;29.88;43.80;99627.66;4499536;31;33892;-67
2021/07/09 05:12:59;;;;;;;10.85;8.45;;;;;;;29.87;43.80;99637.03;4497280;31;33625;-65
2021/07/09 05:15:27;;;;;;;13.45;8.45;;;;;;;29.87;43.80;99637.03;4504167;31;33571;-67
2021/07/09 05:17:55;;;;;;;11.07;8.70;;;;;;;29.87;43.78;99629.59;4489206;31;34044;-68
2021/07/09 05:20:24;;;;;;;;;;;;;;;29.87;43.77;99632.34;4488656;32;33739;-67
2021/07/09 05:22:52;;;;;;;12.57;8.85;;;;;;;30.02;43.50;99620.50;4488520;31;33180;-67
2021/07/09 05:25:19;;;;;;;13.30;9.20;;;;;;;29.93;43.65;99613.91;4491441;31;33475;-67
2021/07/09 05:27:47;;;;;;;9.88;8.52;;;;;;;29.90;43.70;99619.97;4496729;31;32817;-67
2021/07/09 05:30:16;;;;;;;11.73;8.93;;;;;;;29.88;43.79;99622.16;4494132;31;33854;-67
2021/07/09 05:32:43;;;;;;;12.52;8.45;;;;;;;29.88;43.90;99614.72;4489879;31;34240;-67
2021/07/09 05:35:12;;;;;;;12.52;9.15;;;;;;;29.89;43.98;99599.91;4484957;32;34656;-67
2021/07/09 05:37:39;;;;;;;12.75;8.60;;;;;;;29.89;43.99;99619.16;4487839;32;35228;-67
2021/07/09 05:40:07;;;;;;;13.55;9.05;;;;;;;29.91;43.92;99621.63;4487565;32;34801;-67
2021/07/09 05:42:41;;;;;;;11.00;8.75;;;;;;;29.90;43.92;99626.31;4487728;32;34318;-67
2021/07/09 05:45:09;;;;;;;11.80;8.70;;;;;;;29.93;43.84;99636.72;4473929;32;34652;-67
2021/07/09 05:47:38;;;;;;;13.68;9.32;;;;;;;29.90;43.96;99633.72;4473353;32;33894;-67
2021/07/09 05:50:06;;;;;;;10.17;8.10;;;;;;;29.91;43.92;99625.19;4487768;32;34016;-67
2021/07/09 05:52:34;;;;;;;14.32;9.13;;;;;;;29.95;43.76;99628.22;4487652;32;34684;-68
2021/07/09 05:55:06;;;;;;;12.15;8.50;;;;;;;29.95;43.80;99630.97;4487670;32;34378;-67
2021/07/09 05:57:33;;;;;;;12.68;9.20;;;;;;;29.92;43.95;99629.59;4487629;32;34104;-67
2021/07/09 06:00:01;;;;;;;13.00;8.85;;;;;;;29.93;43.88;99633.16;4473256;32;34705;-66
2021/07/09 06:02:28;;;;;;;13.07;9.27;;;;;;;29.91;43.92;99638.13;4487624;32;33492;-67
2021/07/09 06:04:56;;;;;;;13.30;9.55;;;;;;;29.91;43.96;99644.44;4487573;32;35348;-67
2021/07/09 06:07:23;;;;;;;11.95;8.80;;;;;;;29.91;43.95;99636.19;4493935;31;34293;-66
2021/07/09 06:09:51;;;;;;;14.65;9.40;;;;;;;29.91;44.02;99646.38;4503312;31;34583;-68
2021/07/09 06:12:18;;;;;;;11.02;9.00;;;;;;;29.88;44.07;99644.97;4501242;31;33737;-67
2021/07/09 06:14:46;;;;;;;13.70;8.95;;;;;;;29.92;43.96;99648.84;4500172;31;34208;-67
2021/07/09 06:17:13;;;;;;;16.02;9.70;;;;;;;29.92;44.01;99646.09;4500469;31;34130;-66
2021/07/09 06:19:41;;;;;;;11.88;8.27;;;;;;;29.92;44.06;99648.03;4475412;32;33442;-66
2021/07/09 06:22:08;;;;;;;13.00;9.20;;;;;;;29.92;44.08;99654.34;4484779;32;34001;-67
2021/07/09 06:24:36;;;;;;;11.43;8.73;;;;;;;29.93;44.02;99655.16;4470470;32;33093;-67
2021/07/09 06:27:03;;;;;;;14.52;8.48;;;;;;;29.93;44.13;99653.25;4484609;32;34075;-67
2021/07/09 06:29:31;;;;;;;19.25;9.65;;;;;;;29.93;44.10;99645.00;4470280;32;34124;-67
2021/07/09 06:31:58;;;;;;;19.17;9.60;;;;;;;29.93;44.14;99633.97;4484395;32;33806;-67
2021/07/09 06:34:27;;;;;;;16.67;9.10;;;;;;;29.93;44.22;99625.72;4484676;32;34631;-67
2021/07/09 06:36:54;;;;;;;15.52;9.07;;;;;;;29.92;44.24;99618.59;4484613;32;33996;-67
2021/07/09 06:39:22;;;;;;;17.30;9.05;;;;;;;29.92;44.23;99621.34;4470333;32;34159;-67
2021/07/09 06:41:50;;;;;;;12.37;8.80;;;;;;;29.92;44.17;99621.34;4484452;32;33420;-65
2021/07/09 06:44:17;;;;;;;16.15;9.15;;;;;;;29.93;44.12;99616.66;4493845;31;33197;-67
2021/07/09 06:46:46;;;;;;;15.68;8.98;;;;;;;29.91;44.17;99610.63;4483294;31;33775;-65
2021/07/09 06:49:15;;;;;;;17.80;9.73;;;;;;;29.89;44.13;99613.66;4490379;31;33803;-68
2021/07/09 06:51:42;;;;;;;19.62;9.70;;;;;;;29.91;44.03;99610.63;4493764;31;33538;-68
2021/07/09 06:54:09;;;;;;;15.63;9.68;;;;;;;29.92;43.99;99606.75;4499999;31;33244;-68
2021/07/09 06:56:37;;;;;;;18.60;9.23;;;;;;;29.93;44.02;99608.41;4485057;31;34831;-68
2021/07/09 06:59:04;;;;;;;15.88;9.20;;;;;;;29.91;44.04;99625.19;4484196;32;34764;-68
2021/07/09 07:01:32;;;;;;;20.12;9.38;;;;;;;29.92;44.03;99626.84;4468528;32;32960;-69
2021/07/09 07:04:00;;;;;;;17.20;9.50;;;;;;;29.91;44.04;99621.63;4484942;31;34726;-68
2021/07/09 07:06:29;;;;;;;18.52;8.95;;;;;;;29.90;44.08;99608.97;4490519;31;34149;-68
2021/07/09 07:08:56;;;;;;;14.85;9.52;;;;;;;29.89;44.13;99618.31;4493222;31;33447;-68
2021/07/09 07:11:25;;;;;;;14.45;8.90;;;;;;;29.87;44.14;99629.59;4484302;32;33447;-68
2021/07/09 07:13:52;;;;;;;16.35;9.07;;;;;;;29.89;44.08;99637.56;4493926;31;35008;-68
2021/07/09 07:16:20;;;;;;;12.50;9.10;;;;;;;29.89;43.99;99635.66;4472984;31;34867;-67
2021/07/09 07:18:48;;;;;;;13.18;9.18;;;;;;;29.90;44.06;99639.22;4486015;31;34790;-68
2021/07/09 07:21:17;;;;;;;13.13;9.52;;;;;;;29.89;44.14;99643.91;4499976;31;34364;-68
2021/07/09 07:23:44;;;;;;;12.82;9.27;;;;;;;29.88;44.25;99669.75;4487153;31;33916;-68
2021/07/09 07:26:13;;;;;;;12.95;9.55;;;;;;;29.88;44.30;99682.66;4490352;31;34307;-64
2021/07/09 07:28:40;;;;;;;17.62;9.38;;;;;;;29.91;44.78;99673.87;4499841;31;33859;-65
2021/07/09 07:31:09;;;;;;;18.33;8.88;;;;;;;29.93;45.78;99666.16;4500001;31;34297;-64
2021/07/09 07:33:37;;;;;;;19.08;10.00;;;;;;;29.90;46.41;99666.75;4500059;31;34749;-65
2021/07/09 07:36:15;;;;;;;16.95;10.27;;;;;;;29.87;47.01;99675.53;4499055;31;33714;-64
2021/07/09 07:38:44;;;;;;;19.33;10.02;;;;;;;29.83;47.29;99663.41;4499904;31;33984;-64
2021/07/09 07:41:16;;;;;;;18.90;10.15;;;;;;;29.83;47.45;99655.16;4499856;31;34229;-64
2021/07/09 07:43:44;;;;;;;16.42;9.48;;;;;;;29.81;47.55;99668.38;4495211;31;34212;-64
2021/07/09 07:46:12;;;;;;;13.82;9.57;;;;;;;29.80;47.43;99650.19;4482803;32;35110;-64
2021/07/09 07:48:40;;;;;;;13.62;9.80;;;;;;;29.78;47.86;99644.97;4484191;32;33493;-64
2021/07/09 07:51:08;;;;;;;15.82;9.57;;;;;;;29.76;48.04;99660.94;4484031;32;33558;-65
2021/07/09 07:53:36;;;;;;;21.27;10.63;;;;;;;29.76;48.05;99673.87;4483979;32;33120;-64
2021/07/09 07:56:04;;;;;;;15.13;9.75;;;;;;;29.76;48.02;99655.44;4483939;32;34080;-64
2021/07/09 07:58:32;;;;;;;15.55;9.93;;;;;;;29.79;48.15;99648.56;4492028;31;34387;-65
2021/07/09 08:01:01;;;;;;;13.07;9.15;;;;;;;29.78;48.01;99635.91;4483980;32;33609;-64
2021/07/09 08:03:29;;;;;;;16.50;9.57;;;;;;;29.72;48.25;99624.91;4483861;32;33562;-64
2021/07/09 08:05:57;;;;;;;16.35;9.57;;;;;;;29.70;48.15;99627.13;4483835;32;34894;-64
2021/07/09 08:08:24;;;;;;;15.95;9.65;;;;;;;29.70;48.04;99634.50;4483827;32;34072;-64
2021/07/09 08:10:52;;;;;;;13.52;9.65;;;;;;;29.70;48.12;99640.00;4483889;32;33545;-63
2021/07/09 08:13:19;;;;;;;15.88;9.55;;;;;;;29.72;48.63;99643.31;4495562;31;33929;-64
2021/07/09 08:15:47;;;;;;;18.17;9.63;;;;;;;29.72;48.48;99643.31;4499512;31;34117;-63
2021/07/09 08:18:20;;;;;;;23.55;11.02;;;;;;;29.72;48.70;99657.91;4499763;31;34416;-64
2021/07/09 08:20:47;;;;;;;17.95;9.80;;;;;;;29.74;48.78;99660.38;4479052;31;32466;-64
2021/07/09 08:23:15;;;;;;;14.85;10.02;;;;;;;29.73;49.05;99670.53;4501183;31;34668;-64
2021/07/09 08:25:43;;;;;;;18.50;10.20;;;;;;;29.75;48.73;99675.75;4515369;31;34097;-64
2021/07/09 08:28:14;;;;;;;17.65;10.73;;;;;;;29.75;48.80;99681.25;4515494;31;34202;-63
2021/07/09 08:30:43;;;;;;;14.48;10.50;;;;;;;29.73;49.00;99681.53;4515681;31;34249;-64
2021/07/09 08:33:10;;;;;;;17.50;9.57;;;;;;;29.74;48.98;99694.19;4515311;31;34371;-64
2021/07/09 08:35:38;;;;;;;15.88;10.88;;;;;;;29.77;48.59;99695.59;4514890;31;34220;-65
2021/07/09 08:38:06;;;;;;;16.92;11.12;;;;;;;29.79;48.78;99698.88;4507557;31;33947;-67
2021/07/09 08:40:34;;;;;;;15.38;10.27;;;;;;;29.79;49.07;99706.31;4498515;31;34309;-67
2021/07/09 08:43:14;;;;;;;13.98;10.93;;;;;;;29.80;48.84;99708.81;4497451;31;34035;-67
2021/07/09 08:45:41;;;;;;;14.23;10.32;;;;;;;29.81;48.93;99706.88;4485271;31;33300;-67
2021/07/09 08:48:09;;;;;;;12.40;10.52;;;;;;;29.83;48.27;99711.00;4485525;31;34306;-67
2021/07/09 08:50:36;;;;;;;21.02;9.93;;;;;;;29.85;48.47;99713.50;4459528;31;32071;-67
2021/07/09 08:53:04;;;;;;;17.50;10.13;;;;;;;29.87;48.42;99712.09;4499328;31;33844;-67
2021/07/09 08:55:32;;;;;;;16.23;10.07;;;;;;;29.87;48.33;99711.28;4499698;31;34314;-67
2021/07/09 08:58:00;;;;;;;13.35;10.00;;;;;;;29.87;48.16;99712.09;4484847;31;34032;-67
2021/07/09 09:00:42;;;;;;;11.27;8.98;;;;;;;29.90;48.02;99710.75;4470193;32;32434;-67
2021/07/09 09:03:18;;;;;;;14.85;9.55;;;;;;;29.94;47.79;99706.34;4471787;32;33950;-67
2021/07/09 09:05:46;;;;;;;12.52;9.50;;;;;;;29.95;47.71;99702.50;4496883;31;34105;-67
2021/07/09 09:08:16;;;;;;;12.30;9.98;;;;;;;29.93;47.75;99693.69;4490278;31;33962;-67
2021/07/09 09:10:46;;;;;;;10.63;9.38;;;;;;;29.93;47.62;99686.25;4469175;32;33489;-67
2021/07/09 09:13:25;;;;;;;14.63;9.05;;;;;;;29.96;47.46;99688.47;4495622;31;33639;-67
2021/07/09 09:16:05;;;;;;;11.93;9.65;;;;;;;29.95;47.43;99686.81;4484690;31;34009;-67
2021/07/09 09:18:39;;;;;;;12.40;9.10;;;;;;;30.01;47.21;99689.56;4499004;31;33846;-67
2021/07/09 09:21:10;;;;;;;13.00;9.30;;;;;;;30.02;47.10;99685.72;4471690;31;34056;-67
2021/07/09 09:23:53;;;;;;;10.82;8.82;;;;;;;30.01;47.08;99671.13;4498864;31;34014;-68
2021/07/09 09:26:53;;;;;;;11.88;9.02;;;;;;;30.02;46.96;99670.03;4499245;31;34840;-68
2021/07/09 09:29:26;;;;;;;12.10;9.02;;;;;;;29.98;47.06;99667.03;4499006;31;33965;-68
2021/07/09 09:31:59;;;;;;;11.85;9.02;;;;;;;30.00;47.03;99675.00;4498761;31;33458;-68
2021/07/09 09:34:46;;;;;;;13.90;8.93;;;;;;;29.98;46.80;99656.03;4498847;31;34727;-68
2021/07/09 09:37:20;;;;;;;16.98;9.50;;;;;;;30.04;46.63;99642.25;4484565;31;34532;-64
2021/07/09 09:39:48;;;;;;;11.38;8.80;;;;;;;29.98;46.97;99652.41;4498686;31;34652;-64
2021/07/09 09:42:24;;;;;;;12.13;8.90;;;;;;;29.99;46.75;99662.34;4498468;31;33414;-64
2021/07/09 09:44:58;;;;;;;16.17;8.80;;;;;;;29.99;46.83;99643.91;4498582;31;33972;-65
2021/07/09 09:47:27;;;;;;;12.77;9.00;;;;;;;29.99;46.92;99638.41;4498967;31;33967;-65
2021/07/09 09:49:57;;;;;;;13.23;9.13;;;;;;;29.99;47.08;99624.66;4500774;31;33868;-66
2021/07/09 09:52:40;;;;;;;13.73;9.13;;;;;;;30.03;47.05;99610.31;4486654;31;34307;-64
2021/07/09 09:55:32;;;;;;;12.43;9.23;;;;;;;30.07;47.06;99604.00;4499479;31;34036;-64
2021/07/09 09:58:18;;;;;;;11.82;9.48;;;;;;;30.07;47.06;99595.75;4470089;31;33877;-65
2021/07/09 10:00:47;;;;;;;12.73;9.48;;;;;;;30.04;47.26;99595.50;4484898;32;34274;-65
2021/07/09 10:03:19;;;;;;;13.52;9.77;;;;;;;30.05;47.21;99599.88;4492993;31;33154;-65
2021/07/09 10:05:49;;;;;;;16.00;9.50;;;;;;;30.05;47.27;99619.16;4500601;31;34934;-65
2021/07/09 10:08:20;;;;;;;15.07;8.95;;;;;;;30.06;47.36;99634.56;4500745;31;34817;-66
2021/07/09 10:10:48;;;;;;;15.05;10.23;;;;;;;30.07;47.43;99639.78;4486806;31;34271;-65
2021/07/09 10:13:20;;;;;;;13.40;8.95;;;;;;;30.07;47.66;99656.28;4477982;32;33374;-65
2021/07/09 10:15:50;;;;;;;17.20;10.13;;;;;;;30.08;48.00;99640.59;4484666;32;33902;-66
2021/07/09 10:18:19;;;;;;;13.55;9.77;;;;;;;30.08;48.01;99630.44;4470937;32;33654;-66
2021/07/09 10:20:47;;;;;;;12.60;9.02;;;;;;;30.08;48.33;99643.34;4484783;32;34594;-66
2021/07/09 10:23:17;;;;;;;18.87;10.05;;;;;;;30.10;48.49;99643.91;4492324;31;33529;-65
2021/07/09 10:25:49;;;;;;;15.32;9.60;;;;;;;30.10;48.53;99630.16;4473820;31;33869;-66
2021/07/09 10:28:19;;;;;;;14.73;10.27;;;;;;;30.10;48.72;99630.16;4500675;31;34177;-70
2021/07/09 10:30:47;;;;;;;14.65;9.50;;;;;;;30.10;48.69;99630.97;4500452;31;34087;-69
2021/07/09 10:33:35;;;;;;;13.80;9.95;;;;;;;30.07;48.93;99639.78;4497038;31;33523;-70
2021/07/09 10:36:07;;;;;;;16.50;10.23;;;;;;;30.10;48.87;99630.16;4469849;32;33873;-70
2021/07/09 10:38:36;;;;;;;17.90;9.75;;;;;;;30.07;48.78;99638.94;4470700;32;34103;-70
2021/07/09 10:41:13;;;;;;;14.75;9.38;;;;;;;30.06;48.79;99638.13;4470415;32;34127;-69
2021/07/09 10:43:40;;;;;;;11.77;8.63;;;;;;;30.08;48.58;99635.09;4490208;31;33649;-69
2021/07/09 10:46:08;;;;;;;15.30;9.75;;;;;;;30.07;48.35;99639.78;4500542;31;33988;-70
2021/07/09 10:48:37;;;;;;;18.48;10.43;;;;;;;30.06;48.32;99645.56;4500375;31;34083;-69
2021/07/09 10:51:05;;;;;;;15.38;9.32;;;;;;;30.05;48.42;99644.72;4486320;31;33977;-69
2021/07/09 10:53:34;;;;;;;15.18;9.75;;;;;;;30.07;48.10;99638.94;4486252;31;33002;-69
2021/07/09 10:56:04;;;;;;;11.40;10.07;;;;;;;30.05;48.20;99644.72;4491777;31;34488;-69
2021/07/09 10:58:40;;;;;;;16.33;9.15;;;;;;;30.06;48.18;99660.13;4484283;32;34828;-68
2021/07/09 11:01:17;;;;;;;15.70;9.40;;;;;;;30.07;47.99;99650.78;4471140;32;33858;-69
2021/07/09 11:03:45;;;;;;;13.23;9.23;;;;;;;30.09;47.70;99651.34;4484522;32;33441;-70
2021/07/09 11:06:22;;;;;;;11.00;9.23;;;;;;;30.07;47.90;99655.44;4493261;31;33806;-69
2021/07/09 11:09:13;;;;;;;12.05;9.43;;;;;;;30.06;47.86;99670.31;4500358;31;34139;-70
2021/07/09 11:11:50;;;;;;;15.45;9.80;;;;;;;30.10;47.63;99661.25;4474252;31;34029;-70
2021/07/09 11:14:36;;;;;;;13.13;9.50;;;;;;;30.08;47.51;99646.94;4500258;31;33046;-69
2021/07/09 11:17:13;;;;;;;12.57;8.73;;;;;;;30.09;47.20;99647.78;4498144;31;34544;-70
2021/07/09 11:19:46;;;;;;;11.80;8.68;;;;;;;30.07;47.12;99637.03;4484481;32;34110;-70
2021/07/09 11:22:19;;;;;;;12.37;8.75;;;;;;;30.09;46.95;99629.31;4470843;32;34260;-70
2021/07/09 11:24:53;;;;;;;12.37;8.68;;;;;;;30.09;47.12;99623.81;4484633;32;33728;-68
2021/07/09 11:27:27;;;;;;;14.02;8.13;;;;;;;30.10;46.89;99621.91;4484311;32;34174;-70
2021/07/09 11:30:01;;;;;;;13.45;9.30;;;;;;;30.10;46.70;99613.66;4484231;32;34342;-69
2021/07/09 11:32:33;;;;;;;13.23;8.70;;;;;;;30.11;46.58;99607.03;4492721;31;34169;-69
2021/07/09 11:35:02;;;;;;;11.95;8.57;;;;;;;30.10;46.73;99608.97;4500218;31;34093;-68
2021/07/09 11:37:31;;;;;;;11.88;8.93;;;;;;;30.12;46.44;99615.00;4499921;31;33654;-69